TimeMDT,TemperatureF,Dew PointF,Humidity,Sea Level PressureIn,VisibilityMPH,Wind Direction,Wind SpeedMPH,Gust SpeedMPH,PrecipitationIn,Events,Conditions,WindDirDegrees,DateUTC
12:00 AM,26,24,91,29.92,,WSW,10.4,,,,,240,2012-10-06 06:00:00
12:00 AM,26.2,24.4,93,29.92,-9999.0,WSW,10.4,-,N/A,,Unknown,240,2012-10-06 06:00:00
1:00 AM,25.9,23.9,92,29.92,-9999.0,WSW,13.8,-,N/A,,Unknown,250,2012-10-06 07:00:00
2:00 AM,23.7,22.3,94,29.92,-9999.0,WSW,12.7,-,N/A,,Unknown,250,2012-10-06 08:00:00
3:00 AM,25.0,23.5,94,29.93,-9999.0,WNW,12.7,-,N/A,,Unknown,290,2012-10-06 09:00:00
4:00 AM,19.4,17.1,91,29.95,-9999.0,WNW,20.7,-,N/A,,Unknown,290,2012-10-06 10:00:00
5:00 AM,15.8,12.9,88,29.97,-9999.0,WNW,16.1,-,N/A,,Unknown,300,2012-10-06 11:00:00
6:00 AM,14,11,82,29.98,,West,19.6,,,,,280,2012-10-06 12:00:00
6:00 AM,14.0,10.9,88,29.98,-9999.0,West,19.6,-,N/A,,Unknown,280,2012-10-06 12:00:00
7:00 AM,13.8,10.9,88,29.99,-9999.0,WNW,19.6,-,N/A,,Unknown,300,2012-10-06 13:00:00
8:00 AM,14.5,12.4,91,30.00,-9999.0,NW,15.0,-,N/A,,Unknown,310,2012-10-06 14:00:00
9:00 AM,16.9,15.1,93,30.00,-9999.0,WNW,17.3,-,N/A,,Unknown,300,2012-10-06 15:00:00
10:00 AM,16.2,13.8,90,30.02,-9999.0,WNW,12.7,-,N/A,,Unknown,300,2012-10-06 16:00:00
11:00 AM,16.7,14.2,90,30.03,-9999.0,NW,11.5,-,N/A,,Unknown,310,2012-10-06 17:00:00
12:00 PM,18,15,83,30.03,,NW,13.8,,,,,310,2012-10-06 18:00:00
12:00 PM,18.0,15.1,88,30.03,-9999.0,NW,13.8,-,N/A,,Unknown,310,2012-10-06 18:00:00
1:00 PM,17.8,14.4,86,30.05,-9999.0,NW,16.1,-,N/A,,Unknown,310,2012-10-06 19:00:00
2:00 PM,13.1,9.7,86,30.07,-9999.0,NW,17.3,-,N/A,,Unknown,320,2012-10-06 20:00:00
3:00 PM,10.4,7.0,86,30.09,-9999.0,NW,16.1,-,N/A,,Unknown,310,2012-10-06 21:00:00
4:00 PM,7.9,4.1,85,30.12,-9999.0,NW,11.5,-,N/A,,Unknown,320,2012-10-06 22:00:00
5:00 PM,5.4,2.1,86,30.13,-9999.0,WNW,15.0,-,N/A,,Unknown,300,2012-10-06 23:00:00
6:00 PM,4,1,81,30.14,,WNW,13.8,,,,,300,2012-10-07 00:00:00
6:00 PM,4.3,1.0,86,30.14,-9999.0,WNW,13.8,-,N/A,,Unknown,300,2012-10-07 00:00:00
7:00 PM,1.9,-1.1,87,30.16,-9999.0,NW,5.8,-,N/A,,Unknown,310,2012-10-07 01:00:00
8:00 PM,3.6,0.7,88,30.16,-9999.0,NW,10.4,-,N/A,,Unknown,310,2012-10-07 02:00:00
9:00 PM,3.2,0.5,89,30.17,-9999.0,WNW,6.9,-,N/A,,Unknown,300,2012-10-07 03:00:00
10:00 PM,3.4,0.3,87,30.17,-9999.0,West,13.8,-,N/A,,Unknown,260,2012-10-07 04:00:00
11:00 PM,3.6,0.5,87,30.18,-9999.0,West,13.8,-,N/A,,Unknown,260,2012-10-07 05:00:00